Time;durP1;ratioP1;P1;durP2;ratioP2;P2;SDS_P1;SDS_P2;PMS_P1;PMS_P2;Temp;Humidity;BMP_temperature;BMP_pressure;BME280_temperature;BME280_humidity;BME280_pressure;Samples;Min_cycle;Max_cycle;Signal;HPM_P1;HPM_P2
2022/06/05 00:02:23;;;;;;;8.90;6.70;;;24.30;67.80;;;;;;222788;1265;23258;-61
2022/06/05 00:08:00;;;;;;;10.70;6.50;;;24.30;67.50;;;;;;220844;1265;24115;-61
2022/06/05 00:13:07;;;;;;;8.40;6.20;;;24.20;67.80;;;;;;220878;1265;22578;-62
2022/06/05 00:18:11;;;;;;;8.60;6.70;;;24.30;67.20;;;;;;221210;1265;22528;-63
2022/06/05 00:23:15;;;;;;;10.60;6.40;;;24.20;67.40;;;;;;220975;1265;22602;-61
2022/06/05 00:28:47;;;;;;;8.40;6.20;;;24.20;67.30;;;;;;220861;1268;24208;-61
2022/06/05 00:33:51;;;;;;;7.80;6.40;;;24.20;67.20;;;;;;220271;1268;22538;-61
2022/06/05 00:39:12;;;;;;;9.20;6.70;;;24.10;67.20;;;;;;220693;1265;24257;-61
2022/06/05 00:44:23;;;;;;;7.30;6.30;;;24.10;67.10;;;;;;220601;1270;22547;-60
2022/06/05 00:49:34;;;;;;;6.80;5.60;;;24.10;67.20;;;;;;221294;1267;22834;-64
2022/06/05 00:54:37;;;;;;;9.00;6.10;;;24.10;67.00;;;;;;220978;1265;22521;-60
2022/06/05 00:59:44;;;;;;;9.20;6.40;;;24.10;67.00;;;;;;220880;1265;25286;-60
2022/06/05 01:04:50;;;;;;;6.60;5.60;;;24.10;66.90;;;;;;220602;1264;24441;-62
2022/06/05 01:09:53;;;;;;;7.90;5.50;;;24.10;67.20;;;;;;220634;1267;22540;-62
2022/06/05 01:15:12;;;;;;;8.10;6.10;;;24.10;67.00;;;;;;220860;1269;22550;-61
2022/06/05 01:20:37;;;;;;;8.50;5.50;;;24.10;66.90;;;;;;220509;1265;25375;-60
2022/06/05 01:25:41;;;;;;;6.70;5.70;;;24.10;67.40;;;;;;221434;1267;22617;-58
2022/06/05 01:30:55;;;;;;;7.10;5.80;;;24.10;66.90;;;;;;220547;1268;25235;-61
2022/06/05 01:36:07;;;;;;;7.80;5.90;;;24.00;66.70;;;;;;220431;1268;22552;-60
2022/06/05 01:41:29;;;;;;;7.00;5.80;;;24.00;66.60;;;;;;227692;1265;24411;-59
2022/06/05 01:46:36;;;;;;;6.70;5.30;;;24.00;66.60;;;;;;220883;1264;25541;-61
2022/06/05 01:51:48;;;;;;;6.40;5.30;;;24.10;66.60;;;;;;220936;1265;23033;-62
2022/06/05 01:56:56;;;;;;;7.10;5.30;;;24.00;66.50;;;;;;220936;1265;26814;-60
2022/06/05 02:02:04;;;;;;;7.70;5.60;;;24.00;66.50;;;;;;220844;1265;22612;-62
2022/06/05 02:07:25;;;;;;;7.70;5.80;;;24.00;66.50;;;;;;220730;1265;24295;-60
2022/06/05 02:12:28;;;;;;;;;;;24.00;66.50;;;;;;220901;1265;22601;-61
2022/06/05 02:17:33;;;;;;;6.20;5.00;;;24.00;66.50;;;;;;221033;1265;25360;-61
2022/06/05 02:22:43;;;;;;;6.20;4.90;;;23.90;66.60;;;;;;220749;1265;25485;-61
2022/06/05 02:27:47;;;;;;;6.30;5.00;;;23.90;66.50;;;;;;220817;1267;25213;-59
2022/06/05 02:33:00;;;;;;;7.10;5.00;;;23.90;66.60;;;;;;220915;1268;22580;-61
2022/06/05 02:38:23;;;;;;;6.10;4.70;;;23.90;66.40;;;;;;220799;1270;22679;-61
2022/06/05 02:44:29;;;;;;;11.00;5.00;;;23.90;66.50;;;;;;220901;1265;24234;-60
2022/06/05 02:49:47;;;;;;;6.40;5.40;;;23.90;66.70;;;;;;220193;1269;22587;-61
2022/06/05 02:55:07;;;;;;;6.60;5.10;;;23.90;66.60;;;;;;220783;1265;22687;-62
2022/06/05 03:00:18;;;;;;;6.20;4.90;;;23.90;66.30;;;;;;220596;1265;22579;-59
2022/06/05 03:05:22;;;;;;;6.90;5.00;;;23.80;66.30;;;;;;220815;1268;22643;-59
2022/06/05 03:10:27;;;;;;;6.80;4.70;;;23.80;66.20;;;;;;221050;1265;22557;-63
2022/06/05 03:15:31;;;;;;;6.90;5.10;;;23.80;66.20;;;;;;220697;1265;25877;-60
2022/06/05 03:20:40;;;;;;;6.30;4.90;;;23.80;66.30;;;;;;222155;1265;25493;-62
2022/06/05 03:25:45;;;;;;;6.20;4.50;;;23.80;66.10;;;;;;220834;1265;22608;-60
2022/06/05 03:30:53;;;;;;;6.00;4.60;;;23.90;66.10;;;;;;220636;1265;23032;-60
2022/06/05 03:35:57;;;;;;;7.70;5.40;;;23.80;66.10;;;;;;220729;1265;24287;-60
2022/06/05 03:41:01;;;;;;;5.80;4.40;;;23.80;66.10;;;;;;220508;1268;24954;-60
2022/06/05 03:46:10;;;;;;;7.00;4.50;;;23.80;66.00;;;;;;220570;1265;24393;-61
2022/06/05 03:51:19;;;;;;;5.00;4.30;;;23.80;66.00;;;;;;220947;1270;24507;-62
2022/06/05 03:56:27;;;;;;;6.80;5.20;;;23.80;66.00;;;;;;220944;1266;22604;-60
2022/06/05 04:01:33;;;;;;;4.60;4.00;;;23.80;66.00;;;;;;220954;1266;23894;-60
2022/06/05 04:06:37;;;;;;;5.60;4.70;;;23.70;65.80;;;;;;220802;1268;24367;-63
2022/06/05 04:11:47;;;;;;;5.80;4.60;;;23.80;65.90;;;;;;221097;1267;24291;-61
2022/06/05 04:16:50;;;;;;;8.20;4.40;;;23.80;65.90;;;;;;221143;1265;22553;-60
2022/06/05 04:21:54;;;;;;;5.30;4.50;;;23.70;65.80;;;;;;220974;1265;22826;-60
2022/06/05 04:26:58;;;;;;;5.70;4.20;;;23.80;65.80;;;;;;220953;1265;25228;-59
2022/06/05 04:32:03;;;;;;;6.40;4.50;;;23.70;65.70;;;;;;221046;1268;22707;-60
2022/06/05 04:37:06;;;;;;;8.10;4.50;;;23.80;65.80;;;;;;221015;1265;22526;-61
2022/06/05 04:42:10;;;;;;;6.40;4.20;;;23.80;65.70;;;;;;220522;1269;22851;-62
2022/06/05 04:47:14;;;;;;;4.70;4.10;;;23.80;66.00;;;;;;220970;1268;25367;-61
2022/06/05 04:52:18;;;;;;;4.50;3.90;;;23.70;65.90;;;;;;221019;1265;23903;-60
2022/06/05 04:57:21;;;;;;;6.30;4.40;;;23.70;65.80;;;;;;220955;1265;22684;-60
2022/06/05 05:02:26;;;;;;;4.60;3.90;;;23.80;65.40;;;;;;220902;1265;25390;-61
2022/06/05 05:07:30;;;;;;;5.10;3.80;;;23.70;65.60;;;;;;220887;1265;22564;-59
2022/06/05 05:12:34;;;;;;;5.00;4.30;;;23.70;65.30;;;;;;220746;1267;25541;-61
2022/06/05 05:17:38;;;;;;;5.00;4.10;;;23.70;65.10;;;;;;220745;1265;23929;-61
2022/06/05 05:22:42;;;;;;;5.50;4.40;;;23.80;65.80;;;;;;220842;1265;24460;-61
2022/06/05 05:27:46;;;;;;;5.80;3.70;;;23.80;65.30;;;;;;220761;1265;25477;-60
2022/06/05 05:32:50;;;;;;;5.90;4.20;;;23.80;65.30;;;;;;220885;1265;24212;-62
2022/06/05 05:37:54;;;;;;;5.00;3.90;;;23.80;65.30;;;;;;221140;1265;25365;-61
2022/06/05 05:42:58;;;;;;;4.20;3.60;;;23.80;64.80;;;;;;221132;1265;24306;-61
2022/06/05 05:48:01;;;;;;;5.90;4.30;;;23.80;65.20;;;;;;221038;1265;25104;-61
2022/06/05 05:53:05;;;;;;;4.90;4.20;;;23.80;65.30;;;;;;221001;1265;22544;-62
2022/06/05 05:58:09;;;;;;;4.60;3.70;;;23.80;65.30;;;;;;221213;1265;22534;-61
2022/06/05 06:03:13;;;;;;;6.40;3.90;;;23.80;65.20;;;;;;221383;1265;22539;-61
2022/06/05 06:08:17;;;;;;;5.00;3.70;;;23.90;65.30;;;;;;221067;1265;24460;-63
2022/06/05 06:13:22;;;;;;;4.50;3.30;;;23.90;65.20;;;;;;220959;1265;25349;-62
2022/06/05 06:18:28;;;;;;;5.60;4.00;;;23.90;65.50;;;;;;221208;1265;23854;-61
2022/06/05 06:23:32;;;;;;;5.50;3.60;;;23.90;65.40;;;;;;221007;1265;25747;-61
2022/06/05 06:28:36;;;;;;;5.60;4.20;;;23.90;65.50;;;;;;220813;1265;22544;-61
2022/06/05 06:33:40;;;;;;;6.10;3.40;;;23.90;65.30;;;;;;220990;1265;23019;-60
2022/06/05 06:38:45;;;;;;;5.60;4.00;;;24.00;64.90;;;;;;220863;1265;25483;-64
2022/06/05 06:43:49;;;;;;;4.50;3.70;;;24.00;65.10;;;;;;220701;1267;25569;-61
2022/06/05 06:48:53;;;;;;;4.90;3.60;;;24.00;65.30;;;;;;220721;1267;22619;-62
2022/06/05 06:53:57;;;;;;;5.20;3.40;;;24.00;64.90;;;;;;220616;1265;336681;-64
2022/06/05 06:59:07;;;;;;;4.00;3.30;;;24.00;64.60;;;;;;221101;1265;22548;-62
2022/06/05 07:04:12;;;;;;;7.80;3.90;;;24.00;64.70;;;;;;220796;1265;22536;-60
2022/06/05 07:09:16;;;;;;;7.20;3.70;;;24.00;64.40;;;;;;220842;1265;22691;-62
2022/06/05 07:14:20;;;;;;;7.80;3.40;;;24.10;65.20;;;;;;221055;1265;25309;-62
2022/06/05 07:19:24;;;;;;;6.50;4.10;;;24.10;65.50;;;;;;220921;1265;25355;-63
2022/06/05 07:24:28;;;;;;;5.10;3.80;;;24.10;65.30;;;;;;221081;1265;22571;-63
2022/06/05 07:29:32;;;;;;;6.30;3.60;;;24.10;65.10;;;;;;220922;1265;22525;-61
2022/06/05 07:34:38;;;;;;;10.30;3.70;;;24.20;64.90;;;;;;220845;1265;25296;-61
2022/06/05 07:39:47;;;;;;;7.40;3.90;;;24.20;65.20;;;;;;220942;1265;25416;-64
2022/06/05 07:45:15;;;;;;;6.20;4.00;;;24.30;64.80;;;;;;220886;1265;22542;-62
2022/06/05 07:50:19;;;;;;;6.00;3.60;;;24.30;65.00;;;;;;221096;1265;24214;-63
2022/06/05 07:55:24;;;;;;;6.30;3.40;;;24.30;65.00;;;;;;220859;1265;24437;-61
2022/06/05 08:00:31;;;;;;;6.70;3.70;;;24.40;65.80;;;;;;220897;1265;25396;-63
2022/06/05 08:05:36;;;;;;;13.40;4.00;;;24.40;67.00;;;;;;221063;1265;24314;-63
2022/06/05 08:10:40;;;;;;;16.90;3.80;;;24.40;62.90;;;;;;220637;1265;24920;-62
2022/06/05 08:15:49;;;;;;;10.00;4.30;;;24.30;60.60;;;;;;221133;1265;22543;-63
2022/06/05 08:20:54;;;;;;;37.70;12.00;;;24.30;58.00;;;;;;221039;1265;22682;-62
2022/06/05 08:26:04;;;;;;;33.40;10.30;;;24.30;60.00;;;;;;220962;1265;25572;-62
2022/06/05 08:31:08;;;;;;;19.40;7.80;;;24.40;58.80;;;;;;221199;1265;22536;-64
2022/06/05 08:36:15;;;;;;;14.60;6.20;;;24.40;57.80;;;;;;221049;1265;22533;-63
2022/06/05 08:41:29;;;;;;;13.90;6.30;;;24.40;55.70;;;;;;220992;1265;22610;-62
2022/06/05 08:47:04;;;;;;;14.80;5.50;;;24.40;55.70;;;;;;221082;1264;22626;-64
2022/06/05 08:52:27;;;;;;;9.60;4.90;;;24.40;56.20;;;;;;220687;1265;25435;-63
2022/06/05 08:57:39;;;;;;;9.30;4.30;;;24.50;55.40;;;;;;220588;1267;24218;-63
2022/06/05 09:02:54;;;;;;;8.10;4.60;;;24.50;55.00;;;;;;220719;1265;22540;-63
2022/06/05 09:08:08;;;;;;;9.80;3.90;;;24.50;55.20;;;;;;221240;1265;22531;-63
2022/06/05 09:13:15;;;;;;;11.30;3.90;;;24.50;52.80;;;;;;220958;1265;22570;-65
2022/06/05 09:18:23;;;;;;;7.50;3.90;;;24.40;53.20;;;;;;221064;1265;24205;-63
2022/06/05 09:23:34;;;;;;;7.80;4.10;;;24.40;54.10;;;;;;221041;1265;25721;-63
2022/06/05 09:29:03;;;;;;;5.30;3.50;;;24.40;54.20;;;;;;221214;1265;22587;-62
2022/06/05 09:34:34;;;;;;;6.50;3.70;;;24.40;53.50;;;;;;221246;1265;22569;-64
2022/06/05 09:39:51;;;;;;;5.50;3.60;;;24.50;51.90;;;;;;220858;1265;22817;-66
2022/06/05 09:45:24;;;;;;;4.60;3.10;;;24.30;51.70;;;;;;221109;1265;22579;-65
2022/06/05 09:50:36;;;;;;;4.20;2.80;;;24.50;50.00;;;;;;220911;1265;25304;-63
2022/06/05 09:55:43;;;;;;;5.60;3.40;;;24.50;49.80;;;;;;221220;1265;23011;-64
2022/06/05 10:01:19;;;;;;;7.00;3.10;;;24.60;48.80;;;;;;220714;1264;25470;-63
2022/06/05 10:06:40;;;;;;;6.00;2.80;;;24.80;49.40;;;;;;221216;1265;24283;-63
2022/06/05 10:12:01;;;;;;;8.20;3.50;;;24.80;48.70;;;;;;221109;1265;22564;-61
2022/06/05 10:17:05;;;;;;;8.00;3.60;;;24.60;48.70;;;;;;220900;1265;24360;-61
2022/06/05 10:22:23;;;;;;;5.00;3.70;;;24.60;48.80;;;;;;221082;1265;22610;-64
2022/06/05 10:27:29;;;;;;;13.30;3.80;;;24.70;48.80;;;;;;220954;1265;25291;-60
2022/06/05 10:33:04;;;;;;;4.20;3.10;;;24.80;49.30;;;;;;220836;1265;22571;-59
2022/06/05 10:38:36;;;;;;;7.30;3.90;;;24.90;49.60;;;;;;220457;1265;24410;-62
2022/06/05 10:43:43;;;;;;;7.80;4.00;;;24.80;50.00;;;;;;220799;1265;25311;-60
2022/06/05 10:48:55;;;;;;;4.30;3.90;;;24.90;49.50;;;;;;220610;1267;25240;-61
2022/06/05 10:54:14;;;;;;;9.30;3.90;;;25.00;49.10;;;;;;220637;1265;22704;-59
2022/06/05 10:59:48;;;;;;;5.80;3.80;;;25.10;49.50;;;;;;220715;1265;27421;-58
2022/06/05 11:05:23;;;;;;;4.60;3.90;;;25.10;48.90;;;;;;220232;1265;24208;-62
2022/06/05 11:16:28;;;;;;;4.00;3.30;;;25.10;48.00;;;;;;220665;1265;23936;-61
2022/06/05 11:21:33;;;;;;;7.80;4.50;;;25.20;48.10;;;;;;220376;1265;28157;-60
2022/06/05 11:26:53;;;;;;;6.90;4.20;;;25.10;48.60;;;;;;220497;1265;25400;-63
2022/06/05 11:32:30;;;;;;;5.00;3.40;;;25.00;48.80;;;;;;220638;1264;22556;-60
2022/06/05 11:37:59;;;;;;;4.50;3.60;;;25.10;47.70;;;;;;220850;1265;22556;-64
2022/06/05 11:43:34;;;;;;;8.50;3.70;;;25.10;47.70;;;;;;221106;1265;23999;-59
2022/06/05 11:49:13;;;;;;;6.10;3.50;;;25.20;48.70;;;;;;220678;1265;24268;-60
2022/06/05 11:54:25;;;;;;;5.40;3.60;;;25.20;47.40;;;;;;220811;1265;23928;-61
2022/06/05 11:59:40;;;;;;;6.00;3.30;;;25.30;47.50;;;;;;220699;1265;23192;-60
2022/06/05 12:05:12;;;;;;;4.70;3.30;;;25.30;46.50;;;;;;220691;1264;25702;-60
2022/06/05 12:10:28;;;;;;;4.50;3.60;;;25.30;46.00;;;;;;220917;1264;24054;-60
2022/06/05 12:15:53;;;;;;;8.00;3.50;;;25.20;46.40;;;;;;220726;1265;22551;-61
2022/06/05 12:21:28;;;;;;;4.90;3.30;;;25.30;47.50;;;;;;220943;1265;22557;-61
2022/06/05 12:26:47;;;;;;;7.00;3.90;;;25.40;47.00;;;;;;221069;1265;24272;-64
2022/06/05 12:32:07;;;;;;;9.70;3.80;;;25.30;47.40;;;;;;220571;1267;25435;-66
2022/06/05 12:37:16;;;;;;;6.00;3.90;;;25.30;48.20;;;;;;220457;1267;22680;-62
2022/06/05 12:42:27;;;;;;;5.70;3.10;;;25.40;46.70;;;;;;220958;1265;22725;-61
2022/06/05 12:47:39;;;;;;;6.40;3.90;;;25.50;47.60;;;;;;221189;1265;24408;-64
2022/06/05 12:52:52;;;;;;;6.10;3.60;;;25.70;47.00;;;;;;220402;1267;22548;-61
2022/06/05 12:58:08;;;;;;;6.40;3.70;;;25.70;46.40;;;;;;220782;1265;24315;-62
2022/06/05 13:03:24;;;;;;;7.30;3.70;;;25.70;46.50;;;;;;220976;1264;25655;-61
2022/06/05 13:08:49;;;;;;;8.20;4.10;;;25.80;45.80;;;;;;220465;1267;25223;-63
2022/06/05 13:14:09;;;;;;;7.90;4.20;;;25.70;46.00;;;;;;221184;1265;22554;-63
2022/06/05 13:19:22;;;;;;;5.80;3.80;;;25.70;46.30;;;;;;220936;1264;22736;-61
2022/06/05 13:24:36;;;;;;;8.20;4.00;;;25.80;45.60;;;;;;221147;1265;22525;-62
2022/06/05 13:30:14;;;;;;;5.80;3.80;;;25.70;46.50;;;;;;221180;1264;22537;-62
2022/06/05 13:35:40;;;;;;;5.60;4.00;;;25.80;46.40;;;;;;221121;1265;22601;-63
2022/06/05 13:40:58;;;;;;;5.90;4.10;;;25.70;46.50;;;;;;221048;1264;22540;-62
2022/06/05 13:46:23;;;;;;;6.60;4.20;;;25.80;46.50;;;;;;221352;1265;24353;-62
2022/06/05 13:51:34;;;;;;;4.30;3.50;;;25.70;45.70;;;;;;221117;1265;23944;-63
2022/06/05 13:56:41;;;;;;;4.80;3.60;;;25.80;45.60;;;;;;220979;1265;24407;-63
2022/06/05 14:02:23;;;;;;;6.30;3.80;;;25.80;45.30;;;;;;221140;1265;22611;-63
2022/06/05 14:07:52;;;;;;;4.60;3.30;;;25.70;45.90;;;;;;220985;1265;24273;-62
2022/06/05 14:13:07;;;;;;;5.80;3.60;;;25.70;45.50;;;;;;220945;1265;22641;-63
2022/06/05 14:18:26;;;;;;;5.40;3.80;;;25.80;45.00;;;;;;220750;1265;24569;-63
2022/06/05 14:23:31;;;;;;;5.20;3.60;;;25.80;44.80;;;;;;221159;1265;22604;-61
2022/06/05 14:28:42;;;;;;;4.20;3.30;;;25.80;44.20;;;;;;220964;1265;22972;-62
2022/06/05 14:34:01;;;;;;;4.40;3.90;;;25.80;44.70;;;;;;221030;1265;24274;-63
2022/06/05 14:39:25;;;;;;;6.90;3.40;;;25.80;44.10;;;;;;221028;1265;22541;-61
2022/06/05 14:45:03;;;;;;;5.30;4.00;;;25.80;44.50;;;;;;220906;1265;25390;-62
2022/06/05 14:50:39;;;;;;;5.30;3.80;;;25.70;44.90;;;;;;220703;1265;22566;-61
2022/06/05 15:01:53;;;;;;;4.20;3.60;;;25.80;44.30;;;;;;221126;1265;25229;-62
2022/06/05 15:07:36;;;;;;;6.20;3.30;;;25.70;44.00;;;;;;221000;1265;25223;-62
2022/06/05 15:12:54;;;;;;;5.10;3.80;;;25.70;43.80;;;;;;221029;1265;22532;-62
2022/06/05 15:18:12;;;;;;;3.60;3.20;;;25.70;43.40;;;;;;220997;1265;25285;-61
2022/06/05 15:23:44;;;;;;;4.40;3.40;;;25.70;44.10;;;;;;220984;1265;24390;-62
2022/06/05 15:29:21;;;;;;;4.90;3.50;;;25.70;44.10;;;;;;221154;1265;22956;-62
2022/06/05 15:34:54;;;;;;;4.20;3.70;;;25.70;44.00;;;;;;221190;1265;24831;-62
2022/06/05 15:40:10;;;;;;;3.90;3.20;;;25.70;44.30;;;;;;221067;1265;26348;-60
2022/06/05 15:45:52;;;;;;;4.70;3.50;;;25.60;45.20;;;;;;221014;1265;22645;-62
2022/06/05 15:51:10;;;;;;;5.20;3.80;;;25.70;44.70;;;;;;220502;1267;22544;-61
2022/06/05 15:56:51;;;;;;;4.90;3.90;;;25.70;44.50;;;;;;221162;1265;22696;-61
2022/06/05 16:02:08;;;;;;;3.60;3.10;;;25.60;44.70;;;;;;221059;1267;22684;-64
2022/06/05 16:07:18;;;;;;;5.50;3.80;;;25.60;45.20;;;;;;221320;1265;24210;-62
2022/06/05 16:12:33;;;;;;;4.80;3.40;;;25.70;44.90;;;;;;221348;1265;22554;-63
2022/06/05 16:18:02;;;;;;;6.30;3.60;;;25.70;45.30;;;;;;221362;1265;22531;-64
2022/06/05 16:23:36;;;;;;;5.10;3.80;;;25.60;45.60;;;;;;220985;1265;24417;-63
2022/06/05 16:28:48;;;;;;;5.60;4.00;;;25.60;45.70;;;;;;221278;1265;25312;-62
2022/06/05 16:34:06;;;;;;;4.30;3.60;;;25.60;45.70;;;;;;221143;1265;26669;-63
2022/06/05 16:39:31;;;;;;;5.10;4.40;;;25.60;46.00;;;;;;221034;1265;24315;-63
2022/06/05 16:44:37;;;;;;;4.30;3.60;;;25.60;45.80;;;;;;221019;1265;22525;-62
2022/06/05 16:49:52;;;;;;;5.00;3.70;;;25.50;45.80;;;;;;220853;1268;25398;-62
2022/06/05 16:55:17;;;;;;;6.20;3.70;;;25.50;46.00;;;;;;220944;1265;22525;-62
2022/06/05 17:00:32;;;;;;;5.80;3.80;;;25.50;46.10;;;;;;220936;1264;22540;-62
2022/06/05 17:05:44;;;;;;;6.70;3.80;;;25.50;46.10;;;;;;220930;1265;26590;-63
2022/06/05 17:11:28;;;;;;;5.50;3.90;;;25.40;46.30;;;;;;221221;1265;23270;-61
2022/06/05 17:16:35;;;;;;;;;;;25.40;46.30;;;;;;221068;1265;22518;-61
2022/06/05 17:22:15;;;;;;;5.10;3.40;;;25.40;46.30;;;;;;221004;1265;22684;-61
2022/06/05 17:27:44;;;;;;;4.50;3.70;;;25.40;46.10;;;;;;221032;1265;25302;-62
2022/06/05 17:32:57;;;;;;;5.60;3.90;;;25.40;46.40;;;;;;221319;1265;24240;-62
2022/06/05 17:38:07;;;;;;;4.10;3.70;;;25.30;46.30;;;;;;221233;1265;23025;-64
2022/06/05 17:43:50;;;;;;;4.30;3.50;;;25.30;46.00;;;;;;220912;1265;22530;-61
2022/06/05 17:49:15;;;;;;;10.10;4.30;;;25.20;45.90;;;;;;221024;1264;24255;-61
2022/06/05 17:54:52;;;;;;;4.10;3.60;;;25.20;46.10;;;;;;221208;1265;22918;-60
2022/06/05 18:00:17;;;;;;;5.10;3.80;;;25.20;46.70;;;;;;220990;1265;22537;-61
2022/06/05 18:05:27;;;;;;;4.60;3.90;;;25.10;46.60;;;;;;221167;1265;24418;-62
2022/06/05 18:10:43;;;;;;;5.50;4.10;;;25.10;46.90;;;;;;221221;1265;25299;-62
2022/06/05 18:15:56;;;;;;;6.70;4.20;;;25.10;47.30;;;;;;221102;1265;24903;-62
2022/06/05 18:21:03;;;;;;;6.80;4.10;;;25.10;47.10;;;;;;221198;1265;22515;-62
2022/06/05 18:26:51;;;;;;;5.40;4.20;;;25.00;47.20;;;;;;221001;1267;25347;-61
2022/06/05 18:32:19;;;;;;;5.50;4.10;;;25.00;47.30;;;;;;220807;1265;22596;-63
2022/06/05 18:42:57;;;;;;;4.90;4.00;;;24.90;47.80;;;;;;220831;1265;22522;-61
2022/06/05 18:48:07;;;;;;;6.30;4.20;;;24.90;48.00;;;;;;221111;1265;23904;-62
2022/06/05 18:53:22;;;;;;;7.70;3.80;;;24.90;48.20;;;;;;220318;1268;506448;-63
2022/06/05 18:58:35;;;;;;;4.40;4.00;;;24.90;48.30;;;;;;220656;1265;24289;-64
2022/06/05 19:03:39;;;;;;;5.90;4.30;;;24.80;48.50;;;;;;220838;1267;24493;-62
2022/06/05 19:08:43;;;;;;;4.70;4.30;;;24.80;48.60;;;;;;221103;1265;24282;-62
2022/06/05 19:13:56;;;;;;;4.10;3.70;;;24.80;48.90;;;;;;220955;1265;25913;-61
2022/06/05 19:19:12;;;;;;;5.40;4.40;;;24.80;49.10;;;;;;221044;1265;25347;-63
2022/06/05 19:25:18;;;;;;;5.90;4.60;;;24.70;49.50;;;;;;221003;1265;22738;-62
2022/06/05 19:30:35;;;;;;;5.40;4.10;;;24.70;49.30;;;;;;220930;1268;22770;-61
2022/06/05 19:41:18;;;;;;;5.20;4.40;;;24.60;49.50;;;;;;221039;1265;24289;-62
2022/06/05 19:46:21;;;;;;;6.20;3.80;;;24.60;49.60;;;;;;221233;1265;22527;-63
2022/06/05 19:51:34;;;;;;;9.60;4.40;;;24.60;49.70;;;;;;220861;1265;25716;-63
2022/06/05 19:57:16;;;;;;;8.50;4.00;;;24.70;50.40;;;;;;221057;1265;22719;-61
2022/06/05 20:02:20;;;;;;;16.20;5.30;;;24.80;50.00;;;;;;220677;1268;22556;-61
2022/06/05 20:07:37;;;;;;;11.70;5.10;;;24.80;50.60;;;;;;220556;1267;22551;-61
2022/06/05 20:12:48;;;;;;;14.00;5.80;;;24.90;52.30;;;;;;220814;1265;25752;-60
2022/06/05 20:18:01;;;;;;;10.00;4.60;;;24.90;53.80;;;;;;220953;1265;25303;-58
2022/06/05 20:23:29;;;;;;;6.80;4.30;;;24.70;51.30;;;;;;220989;1265;22537;-60
2022/06/05 20:29:12;;;;;;;15.50;4.40;;;24.60;51.30;;;;;;220889;1265;22526;-61
2022/06/05 20:34:33;;;;;;;8.20;4.80;;;24.40;51.40;;;;;;221045;1265;22535;-63
2022/06/05 20:39:46;;;;;;;;;;;24.40;51.50;;;;;;220894;1265;22703;-61
2022/06/05 20:45:05;;;;;;;8.50;4.60;;;24.40;51.80;;;;;;220714;1268;24096;-61
2022/06/05 20:50:14;;;;;;;9.00;4.90;;;24.60;51.70;;;;;;220859;1268;22643;-60
2022/06/05 20:55:23;;;;;;;11.50;4.60;;;24.70;53.20;;;;;;221139;1265;24361;-61
2022/06/05 21:00:39;;;;;;;17.30;4.90;;;24.70;51.70;;;;;;220719;1267;25632;-62
2022/06/05 21:16:55;;;;;;;5.00;4.00;;;24.50;52.30;;;;;;220849;1270;23174;-59
2022/06/05 21:22:00;;;;;;;7.60;4.90;;;24.60;52.30;;;;;;220767;1267;25838;-61
2022/06/05 21:27:19;;;;;;;9.00;4.80;;;24.70;52.10;;;;;;220857;1268;22529;-63
2022/06/05 21:32:42;;;;;;;8.00;4.40;;;24.70;52.10;;;;;;220430;1270;25236;-62
2022/06/05 21:38:07;;;;;;;11.40;5.60;;;24.70;52.80;;;;;;220771;1268;24446;-60
2022/06/05 21:43:30;;;;;;;10.80;5.50;;;24.70;52.80;;;;;;220985;1265;24210;-59
2022/06/05 21:48:39;;;;;;;12.30;5.60;;;24.80;55.60;;;;;;220642;1265;24205;-57
2022/06/05 21:53:54;;;;;;;19.00;6.00;;;24.80;55.30;;;;;;220844;1265;22589;-61
2022/06/05 21:58:58;;;;;;;13.80;5.90;;;24.90;54.70;;;;;;220916;1265;22531;-60
2022/06/05 22:04:04;;;;;;;13.30;6.00;;;24.90;54.60;;;;;;220893;1268;22525;-61
2022/06/05 22:09:11;;;;;;;12.50;5.80;;;24.90;54.30;;;;;;221078;1268;24040;-61
2022/06/05 22:14:20;;;;;;;10.40;5.60;;;24.90;54.20;;;;;;221070;1265;22539;-62
2022/06/05 22:19:29;;;;;;;18.10;7.00;;;24.90;53.80;;;;;;220671;1269;25345;-62
2022/06/05 22:24:35;;;;;;;10.80;5.70;;;25.00;54.20;;;;;;220899;1266;22642;-60
2022/06/05 22:29:38;;;;;;;11.00;5.40;;;25.00;53.70;;;;;;220971;1265;22532;-60
2022/06/05 22:34:44;;;;;;;12.50;5.60;;;25.00;53.70;;;;;;220780;1265;25229;-60
2022/06/05 22:39:48;;;;;;;9.90;4.90;;;25.00;53.80;;;;;;220834;1268;22633;-61
2022/06/05 22:44:51;;;;;;;12.10;5.10;;;25.00;53.60;;;;;;221860;1265;22535;-61
2022/06/05 22:49:55;;;;;;;15.70;5.50;;;24.90;53.80;;;;;;220717;1265;22574;-62
2022/06/05 22:55:00;;;;;;;15.10;6.70;;;24.90;55.70;;;;;;220911;1265;24200;-61
2022/06/05 23:00:09;;;;;;;14.30;6.40;;;25.00;56.80;;;;;;221114;1265;22569;-62
2022/06/05 23:05:14;;;;;;;12.80;5.80;;;25.00;57.80;;;;;;220999;1265;22540;-59
2022/06/05 23:10:24;;;;;;;14.70;5.90;;;25.00;57.20;;;;;;220987;1265;25333;-62
2022/06/05 23:15:33;;;;;;;12.50;5.60;;;25.00;57.40;;;;;;221033;1265;25445;-61
2022/06/05 23:20:48;;;;;;;13.90;5.90;;;25.00;56.40;;;;;;221042;1265;22547;-60
2022/06/05 23:25:52;;;;;;;11.20;5.20;;;25.00;56.20;;;;;;220684;1265;22528;-60
2022/06/05 23:30:57;;;;;;;10.70;6.00;;;25.00;56.20;;;;;;220896;1265;25373;-62
2022/06/05 23:36:04;;;;;;;12.80;6.20;;;25.00;56.40;;;;;;220460;1268;25160;-58
2022/06/05 23:41:23;;;;;;;12.10;5.50;;;24.90;56.30;;;;;;220874;1265;22528;-62
2022/06/05 23:46:29;;;;;;;13.80;6.40;;;24.90;56.10;;;;;;220509;1265;24303;-59
2022/06/05 23:51:34;;;;;;;14.60;6.40;;;24.90;55.90;;;;;;222322;1265;24309;-62
